Time;durP1;ratioP1;P1;durP2;ratioP2;P2;SDS_P1;SDS_P2;PMS_P1;PMS_P2;Temp;Humidity;BMP_temperature;BMP_pressure;BME280_temperature;BME280_humidity;BME280_pressure;Samples;Min_cycle;Max_cycle;Signal;HPM_P1;HPM_P2
2021/12/20 00:00:18;;;;;;;3.00;2.80;;;14.00;64.60;15.10;101802.00;;;;4947775;28;20188;-39
2021/12/20 00:02:47;;;;;;;3.00;2.80;;;14.00;64.80;15.10;101802.00;;;;4947764;29;20269;-39
2021/12/20 00:05:14;;;;;;;2.80;2.60;;;14.00;64.70;15.10;101805.00;;;;4947349;28;20193;-39
2021/12/20 00:07:40;;;;;;;2.87;2.67;;;13.90;64.40;15.10;101804.00;;;;4946158;29;20185;-39
2021/12/20 00:10:06;;;;;;;3.20;2.90;;;13.90;64.50;15.10;101805.00;;;;4947443;28;20406;-39
2021/12/20 00:12:32;;;;;;;3.00;2.80;;;13.90;64.70;15.10;101805.00;;;;4947306;28;20209;-39
2021/12/20 00:14:58;;;;;;;3.13;2.90;;;13.90;64.50;15.10;101803.00;;;;4947417;28;20196;-39
2021/12/20 00:17:24;;;;;;;3.30;3.10;;;13.90;64.50;15.00;101798.00;;;;4947306;28;20181;-39
2021/12/20 00:19:49;;;;;;;2.90;2.70;;;13.90;64.70;15.00;101798.00;;;;4947477;28;20162;-39
2021/12/20 00:22:15;;;;;;;3.20;3.00;;;13.90;64.40;15.00;101805.00;;;;4947729;28;20229;-39
2021/12/20 00:24:41;;;;;;;3.20;2.90;;;13.90;64.50;15.00;101797.00;;;;4947273;28;20593;-39
2021/12/20 00:27:08;;;;;;;3.30;3.10;;;13.90;64.70;15.00;101799.00;;;;4946907;29;20198;-39
2021/12/20 00:29:35;;;;;;;3.40;3.10;;;13.90;64.50;15.00;101798.00;;;;4947460;28;20197;-39
2021/12/20 00:32:01;;;;;;;3.17;2.97;;;13.90;64.50;15.00;101786.00;;;;4947599;28;20169;-39
2021/12/20 00:34:26;;;;;;;3.57;3.27;;;13.90;64.50;15.00;101785.00;;;;4947473;28;20711;-39
2021/12/20 00:37:01;;;;;;;3.00;2.80;;;13.80;64.40;15.00;101781.00;;;;4946808;28;20174;-39
2021/12/20 00:42:11;;;;;;;3.00;2.80;;;13.80;64.50;15.00;101778.00;;;;4947524;28;20228;-39
2021/12/20 00:44:37;;;;;;;3.40;3.10;;;13.80;64.50;15.00;101779.00;;;;4950744;28;20201;-39
2021/12/20 00:47:03;;;;;;;3.30;3.00;;;13.80;64.60;15.00;101781.00;;;;4951037;28;20225;-39
2021/12/20 00:49:29;;;;;;;3.50;3.20;;;13.80;64.60;15.00;101703.00;;;;4950869;29;20182;-39
2021/12/20 00:51:55;;;;;;;3.37;3.10;;;13.90;64.70;14.90;101787.00;;;;4951110;28;20644;-39
2021/12/20 00:54:20;;;;;;;3.07;2.87;;;13.80;64.60;14.90;101779.00;;;;4950268;29;20229;-39
2021/12/20 00:56:46;;;;;;;3.63;3.33;;;13.80;64.60;14.90;101795.00;;;;4951126;28;20197;-39
2021/12/20 00:59:12;;;;;;;3.47;3.17;;;13.80;64.70;14.90;101790.00;;;;4951039;28;20185;-39
2021/12/20 01:01:37;;;;;;;3.40;3.10;;;13.80;64.60;14.90;101786.00;;;;4950937;28;20610;-39
2021/12/20 01:04:03;;;;;;;3.50;3.20;;;13.80;64.50;14.90;101775.00;;;;4950925;28;20278;-38
2021/12/20 01:06:29;;;;;;;3.57;3.27;;;13.80;65.00;14.90;101773.00;;;;4950541;28;20502;-38
2021/12/20 01:08:55;;;;;;;3.60;3.30;;;13.80;64.50;14.90;101788.00;;;;4950735;29;20181;-38
2021/12/20 01:11:22;;;;;;;3.10;2.90;;;13.70;64.50;14.90;101780.00;;;;4951187;28;20177;-38
2021/12/20 01:13:48;;;;;;;3.30;3.10;;;13.80;64.70;14.90;101778.00;;;;4951244;28;20193;-39
2021/12/20 01:16:14;;;;;;;3.63;3.33;;;13.70;64.50;14.90;101785.00;;;;4950402;28;20197;-39
2021/12/20 01:18:40;;;;;;;3.53;3.23;;;13.70;64.70;14.90;101788.00;;;;4950684;28;20675;-39
2021/12/20 01:21:07;;;;;;;3.50;3.20;;;13.70;64.50;14.90;101783.00;;;;4950504;28;20182;-39
2021/12/20 01:23:32;;;;;;;3.30;3.10;;;13.80;64.70;14.90;101793.00;;;;4950798;28;20212;-39
2021/12/20 01:25:58;;;;;;;3.70;3.40;;;13.70;64.70;14.90;101792.00;;;;4950439;29;20170;-39
2021/12/20 01:28:24;;;;;;;3.30;3.10;;;13.70;64.70;14.90;101780.00;;;;4950287;28;20541;-39
2021/12/20 01:30:49;;;;;;;3.30;3.10;;;13.70;64.40;14.90;101788.00;;;;4950592;28;20197;-39
2021/12/20 01:33:15;;;;;;;3.50;3.20;;;13.70;64.50;14.90;101788.00;;;;4950083;28;20170;-39
2021/12/20 01:35:41;;;;;;;3.10;2.90;;;13.70;64.70;14.90;101794.00;;;;4950283;28;20320;-39
2021/12/20 01:38:07;;;;;;;3.73;3.37;;;13.70;64.50;14.90;101786.00;;;;4950488;28;20477;-39
2021/12/20 01:40:35;;;;;;;3.40;3.10;;;13.70;64.70;14.80;101798.00;;;;4950397;28;20321;-39
2021/12/20 01:43:00;;;;;;;3.50;3.20;;;13.70;64.50;14.90;101805.00;;;;4950312;28;20202;-39
2021/12/20 01:45:27;;;;;;;3.90;3.60;;;13.70;64.50;14.80;101785.00;;;;4950922;28;20186;-39
2021/12/20 01:48:03;;;;;;;3.50;3.30;;;13.70;64.60;14.80;101777.00;;;;4950027;29;20599;-39
2021/12/20 01:53:07;;;;;;;3.63;3.37;;;13.70;64.60;14.80;101789.00;;;;4949969;28;20607;-39
2021/12/20 01:55:33;;;;;;;4.33;3.43;;;13.70;64.70;14.80;101790.00;;;;4948708;28;20581;-39
2021/12/20 01:57:59;;;;;;;3.80;3.50;;;13.70;64.70;14.80;101795.00;;;;4950107;28;20174;-39
2021/12/20 02:00:28;;;;;;;3.70;3.40;;;13.70;64.70;14.80;101784.00;;;;4950018;28;20185;-39
2021/12/20 02:02:59;;;;;;;3.70;3.40;;;13.70;64.70;14.80;101777.00;;;;4949731;28;20211;-39
2021/12/20 02:10:43;;;;;;;3.70;3.40;;;13.70;64.70;14.80;101786.00;;;;4950124;28;20161;-39
2021/12/20 02:13:09;;;;;;;3.50;3.20;;;13.80;64.70;14.80;101793.00;;;;4948561;29;20229;-39
2021/12/20 02:15:35;;;;;;;3.20;2.93;;;13.90;64.40;14.90;101783.00;;;;4948134;29;20201;-39
2021/12/20 02:18:01;;;;;;;3.13;2.83;;;14.10;64.10;15.00;101783.00;;;;4949013;28;20501;-39
2021/12/20 02:20:32;;;;;;;3.20;2.90;;;14.40;63.80;15.10;101782.00;;;;4949854;28;20167;-39
2021/12/20 02:22:58;;;;;;;3.20;2.90;;;14.70;63.70;15.30;101780.00;;;;4949435;28;20205;-39
2021/12/20 02:25:25;;;;;;;3.00;2.80;;;15.00;63.10;15.40;101789.00;;;;4949673;28;20217;-39
2021/12/20 02:27:50;;;;;;;3.10;2.90;;;15.20;62.80;15.60;101794.00;;;;4949168;28;20596;-38
2021/12/20 02:38:26;;;;;;;2.97;2.77;;;15.60;62.10;16.10;101774.00;;;;4949410;29;20216;-38
2021/12/20 02:41:19;;;;;;;2.90;2.70;;;15.70;62.20;16.10;101779.00;;;;4948968;28;20173;-38
2021/12/20 02:43:55;;;;;;;2.83;2.63;;;15.70;62.10;16.20;101772.00;;;;4949252;28;20579;-38
2021/12/20 02:48:59;;;;;;;2.80;2.60;;;15.80;62.30;16.30;101769.00;;;;4949064;29;20571;-38
2021/12/20 02:51:26;;;;;;;2.70;2.50;;;15.80;62.30;16.30;101773.00;;;;4948947;28;20169;-38
2021/12/20 02:53:53;;;;;;;2.83;2.63;;;15.80;62.40;16.30;101764.00;;;;4948914;28;20208;-38
2021/12/20 02:56:19;;;;;;;2.80;2.60;;;15.70;62.50;16.30;101773.00;;;;4949274;28;20286;-38
2021/12/20 02:58:44;;;;;;;2.97;2.70;;;15.80;62.60;16.40;101773.00;;;;4949279;28;20177;-38
2021/12/20 03:01:11;;;;;;;2.80;2.60;;;15.70;62.60;16.40;101774.00;;;;4957497;28;20387;-38
2021/12/20 03:03:36;;;;;;;2.70;2.50;;;15.70;62.60;16.40;101766.00;;;;4954806;28;20201;-38
2021/12/20 03:06:32;;;;;;;2.93;2.73;;;15.70;62.60;16.40;101781.00;;;;4949440;28;20248;-38
2021/12/20 03:08:59;;;;;;;2.70;2.50;;;15.70;62.70;16.40;101778.00;;;;4947435;28;20196;-38
2021/12/20 03:11:25;;;;;;;2.83;2.63;;;15.70;62.90;16.40;101779.00;;;;4962905;28;20177;-39
2021/12/20 03:13:54;;;;;;;2.53;2.33;;;15.60;62.90;16.40;101771.00;;;;4948307;28;20201;-38
2021/12/20 03:16:20;;;;;;;2.73;2.53;;;15.60;62.90;16.40;101782.00;;;;4947991;29;20268;-38
2021/12/20 03:18:46;;;;;;;2.90;2.70;;;15.60;63.10;16.40;101776.00;;;;4947785;29;20177;-38
2021/12/20 03:21:12;;;;;;;2.53;2.33;;;15.60;63.10;16.40;101782.00;;;;4948220;28;20890;-38
2021/12/20 03:23:37;;;;;;;2.60;2.40;;;15.60;63.30;16.40;101781.00;;;;4947881;28;20198;-38
2021/12/20 03:26:03;;;;;;;2.73;2.53;;;15.60;63.40;16.40;101766.00;;;;4947762;28;20221;-38
2021/12/20 03:28:29;;;;;;;2.70;2.50;;;15.60;63.40;16.40;101780.00;;;;4947860;29;20185;-38
2021/12/20 03:30:54;;;;;;;2.60;2.40;;;15.50;63.30;16.40;101776.00;;;;4947477;29;20173;-38
2021/12/20 03:33:20;;;;;;;2.50;2.30;;;15.50;63.40;16.40;101776.00;;;;4962940;28;20220;-38
2021/12/20 03:35:46;;;;;;;2.50;2.30;;;15.50;63.50;16.40;101773.00;;;;4966055;28;20189;-38
2021/12/20 03:38:12;;;;;;;2.50;2.30;;;15.50;63.50;16.40;101780.00;;;;4966201;28;20177;-38
2021/12/20 03:40:37;;;;;;;2.50;2.30;;;15.40;63.50;16.20;101778.00;;;;4966080;28;20177;-38
2021/12/20 03:43:05;;;;;;;2.43;2.23;;;15.40;63.60;16.30;101784.00;;;;4965958;28;20259;-38
2021/12/20 03:45:31;;;;;;;3.43;2.50;;;15.40;63.70;16.30;101776.00;;;;4966718;28;20192;-38
2021/12/20 03:47:56;;;;;;;2.83;2.50;;;15.40;63.70;16.30;101786.00;;;;4964596;28;20595;-38
2021/12/20 03:50:24;;;;;;;2.47;2.27;;;15.30;64.30;16.30;101792.00;;;;4967396;28;20176;-38
2021/12/20 03:52:50;;;;;;;2.23;2.13;;;15.40;63.70;16.30;101791.00;;;;4967524;28;20173;-38
2021/12/20 03:55:15;;;;;;;3.67;2.27;;;15.30;63.70;16.30;101777.00;;;;4966418;28;20295;-38
2021/12/20 03:57:41;;;;;;;2.63;2.43;;;15.30;63.70;16.20;101786.00;;;;4967135;28;20185;-38
2021/12/20 04:00:10;;;;;;;3.50;2.40;;;15.30;63.70;16.20;101779.00;;;;4966983;28;20177;-38
2021/12/20 04:02:41;;;;;;;2.50;2.30;;;15.30;63.90;16.20;101782.00;;;;4967156;28;20212;-38
2021/12/20 04:05:08;;;;;;;2.60;2.40;;;15.30;63.90;16.20;101777.00;;;;4967575;28;20280;-38
2021/12/20 04:07:33;;;;;;;2.50;2.13;;;15.20;63.80;16.20;101781.00;;;;4966573;28;20169;-38
2021/12/20 04:09:59;;;;;;;2.50;2.30;;;15.20;63.80;16.20;101780.00;;;;4971958;28;20280;-38
2021/12/20 04:12:25;;;;;;;2.50;2.30;;;15.20;63.90;16.20;101778.00;;;;4967144;28;20177;-38
2021/12/20 04:14:50;;;;;;;2.63;2.43;;;15.20;63.70;16.20;101775.00;;;;4966878;28;20224;-38
2021/12/20 04:17:16;;;;;;;2.40;2.20;;;15.20;63.90;16.10;101765.00;;;;4966347;28;20173;-38
2021/12/20 04:19:42;;;;;;;2.60;2.40;;;15.10;63.80;16.10;101707.00;;;;4967117;28;20656;-38
2021/12/20 04:22:08;;;;;;;2.70;2.50;;;15.10;63.80;16.10;101787.00;;;;4966717;28;20581;-38
2021/12/20 04:24:34;;;;;;;2.80;2.50;;;15.10;63.90;16.10;101623.00;;;;4966878;28;20224;-38
2021/12/20 04:26:59;;;;;;;2.57;2.37;;;15.10;63.90;15.80;101786.00;;;;4966661;28;20204;-38
2021/12/20 04:29:27;;;;;;;2.60;2.40;;;15.10;63.80;16.10;101788.00;;;;4966835;28;20181;-38
2021/12/20 04:31:53;;;;;;;2.50;2.30;;;15.10;63.80;16.10;101783.00;;;;4966864;28;20536;-38
2021/12/20 04:34:19;;;;;;;2.50;2.30;;;15.00;63.80;16.00;101790.00;;;;4966785;28;20433;-38
2021/12/20 04:36:45;;;;;;;2.67;2.43;;;15.00;63.90;16.00;101793.00;;;;4966436;28;20248;-39
2021/12/20 04:39:14;;;;;;;2.60;2.30;;;15.00;63.90;16.00;101793.00;;;;4966885;28;20172;-38
2021/12/20 04:41:40;;;;;;;2.70;2.50;;;15.00;63.90;16.00;101798.00;;;;4967106;28;20540;-38
2021/12/20 04:44:06;;;;;;;2.40;2.20;;;15.00;63.90;16.00;101790.00;;;;4966355;28;20235;-39
2021/12/20 04:46:32;;;;;;;2.50;2.30;;;15.00;64.00;16.00;101783.00;;;;4966141;28;20177;-39
2021/12/20 04:48:57;;;;;;;2.93;2.60;;;15.00;64.00;16.00;101792.00;;;;4966727;28;20172;-39
2021/12/20 04:51:23;;;;;;;2.63;2.43;;;14.90;63.80;16.00;101784.00;;;;4966271;28;20221;-39
2021/12/20 04:53:49;;;;;;;2.70;2.40;;;14.90;64.00;15.90;101786.00;;;;4966396;28;20192;-39
2021/12/20 04:56:15;;;;;;;2.87;2.30;;;14.90;63.90;15.90;101795.00;;;;4966418;28;20337;-39
2021/12/20 04:58:41;;;;;;;2.90;2.53;;;14.90;63.90;15.90;101782.00;;;;4966209;28;20215;-39
2021/12/20 05:01:07;;;;;;;2.60;2.40;;;14.90;64.00;15.90;101777.00;;;;4966789;28;20165;-39
2021/12/20 05:03:33;;;;;;;2.40;2.20;;;14.90;63.90;15.90;101775.00;;;;4966024;28;20583;-39
2021/12/20 05:05:58;;;;;;;2.47;2.27;;;14.90;63.90;15.90;101788.00;;;;4966198;28;20483;-40
2021/12/20 05:08:33;;;;;;;3.27;2.40;;;14.80;63.80;15.90;101798.00;;;;4966659;28;20766;-39
2021/12/20 05:10:58;;;;;;;3.13;2.30;;;14.80;63.90;15.90;101797.00;;;;4966844;28;20242;-39
2021/12/20 05:13:24;;;;;;;2.40;2.20;;;14.80;63.80;15.90;101790.00;;;;4967018;28;20555;-39
2021/12/20 05:15:50;;;;;;;2.40;2.20;;;14.80;63.80;15.80;101785.00;;;;4966559;28;20177;-39
2021/12/20 05:18:15;;;;;;;2.50;2.30;;;14.80;63.90;15.80;101701.00;;;;4965606;28;20229;-39
2021/12/20 05:20:41;;;;;;;2.50;2.20;;;14.80;63.80;15.80;101783.00;;;;4966889;28;20659;-39
2021/12/20 05:23:08;;;;;;;2.40;2.20;;;14.80;63.80;15.80;101781.00;;;;4966298;28;20276;-39
2021/12/20 05:25:34;;;;;;;2.60;2.23;;;14.70;63.70;15.80;101793.00;;;;4966689;28;20354;-39
2021/12/20 05:28:00;;;;;;;2.40;2.20;;;14.70;63.80;15.80;101794.00;;;;4966877;28;20188;-39
2021/12/20 05:30:26;;;;;;;2.23;2.03;;;14.70;63.70;15.80;101788.00;;;;4969667;28;20648;-39
2021/12/20 05:32:52;;;;;;;2.40;2.20;;;14.70;63.80;15.70;101792.00;;;;4970651;28;20257;-39
2021/12/20 05:35:19;;;;;;;2.40;2.20;;;14.70;63.70;15.70;101798.00;;;;4969828;28;20540;-39
2021/12/20 05:37:44;;;;;;;2.37;2.17;;;14.70;64.30;15.70;101796.00;;;;4969880;28;20199;-39
2021/12/20 05:40:11;;;;;;;2.50;2.30;;;14.60;63.70;15.70;101793.00;;;;4970211;28;20652;-39
2021/12/20 05:42:37;;;;;;;2.43;2.23;;;14.60;63.90;15.70;101793.00;;;;4970135;28;20267;-39
2021/12/20 05:45:04;;;;;;;2.40;2.20;;;14.60;63.90;15.70;101797.00;;;;4970246;28;20213;-39
2021/12/20 05:47:30;;;;;;;2.63;2.30;;;14.60;63.90;15.70;101793.00;;;;4966974;28;20193;-39
2021/12/20 05:49:56;;;;;;;3.13;2.30;;;14.60;64.30;15.70;101796.00;;;;4963550;28;20188;-39
2021/12/20 05:52:21;;;;;;;2.33;2.13;;;14.50;64.10;15.70;101806.00;;;;4970165;28;20173;-39
2021/12/20 05:54:47;;;;;;;2.33;2.13;;;14.50;64.00;15.70;101801.00;;;;4969664;28;20192;-39
2021/12/20 05:57:13;;;;;;;2.33;2.13;;;14.50;64.00;15.70;101805.00;;;;4969738;28;20648;-39
2021/12/20 05:59:38;;;;;;;2.33;2.13;;;14.50;64.10;15.60;101811.00;;;;4969338;28;20157;-39
2021/12/20 06:02:04;;;;;;;2.47;2.27;;;14.50;64.30;15.60;101808.00;;;;4969709;28;20184;-39
2021/12/20 06:04:30;;;;;;;2.37;2.17;;;14.50;64.00;15.60;101802.00;;;;4968953;28;20287;-39
2021/12/20 06:06:56;;;;;;;2.30;2.10;;;14.50;64.10;15.60;101804.00;;;;4969399;28;20158;-39
2021/12/20 06:09:21;;;;;;;2.70;2.30;;;14.50;64.30;15.60;101816.00;;;;4969294;28;20590;-38
2021/12/20 06:11:47;;;;;;;2.50;2.17;;;14.40;64.20;15.60;101815.00;;;;4969523;28;20288;-38
2021/12/20 06:14:13;;;;;;;2.40;2.17;;;14.40;63.90;15.60;101820.00;;;;4970037;28;20691;-38
2021/12/20 06:16:39;;;;;;;2.67;2.27;;;14.40;64.20;15.60;101823.00;;;;4969480;28;20168;-38
2021/12/20 06:19:04;;;;;;;2.23;2.00;;;14.40;64.10;15.50;101820.00;;;;4968669;28;20177;-39
2021/12/20 06:21:30;;;;;;;2.40;2.20;;;14.40;64.20;15.50;101811.00;;;;4969291;28;20208;-39
2021/12/20 06:23:56;;;;;;;2.60;2.13;;;14.40;64.00;15.50;101818.00;;;;4968798;28;20215;-38
2021/12/20 06:26:24;;;;;;;2.73;2.27;;;14.40;64.10;15.50;101817.00;;;;4966905;28;20211;-38
2021/12/20 06:28:53;;;;;;;3.90;2.20;;;14.40;64.10;15.50;101820.00;;;;4968171;28;20578;-38
2021/12/20 06:31:18;;;;;;;2.30;2.10;;;14.40;64.10;15.50;101823.00;;;;4968369;28;20213;-39
2021/12/20 06:33:44;;;;;;;3.13;2.10;;;14.30;63.90;15.50;101815.00;;;;4968108;28;20227;-38
2021/12/20 06:36:10;;;;;;;2.27;2.00;;;14.30;64.10;15.50;101822.00;;;;4967572;28;20716;-38
2021/12/20 06:38:43;;;;;;;2.13;1.93;;;14.30;64.30;15.50;101828.00;;;;4967654;28;20173;-38
2021/12/20 06:41:08;;;;;;;2.50;2.20;;;14.30;64.20;15.40;101827.00;;;;4969232;28;20181;-39
2021/12/20 06:43:34;;;;;;;2.93;2.10;;;14.30;64.50;15.40;101830.00;;;;4968072;28;20211;-39
2021/12/20 06:46:00;;;;;;;2.30;2.10;;;14.30;64.60;15.40;101839.00;;;;4969829;28;20177;-39
2021/12/20 06:48:25;;;;;;;2.70;2.27;;;14.30;64.20;15.40;101834.00;;;;4968346;28;20596;-39
2021/12/20 06:50:51;;;;;;;2.20;2.00;;;14.20;64.10;15.40;101833.00;;;;4967659;28;20204;-39
2021/12/20 06:53:17;;;;;;;2.83;2.10;;;14.20;64.10;15.40;101834.00;;;;4968418;28;20640;-39
2021/12/20 06:55:42;;;;;;;2.27;2.03;;;14.20;64.30;15.40;101843.00;;;;4967982;28;20200;-39
2021/12/20 06:58:08;;;;;;;2.20;2.00;;;14.20;64.30;15.40;101848.00;;;;4967760;28;20181;-39
2021/12/20 07:00:34;;;;;;;2.23;2.00;;;14.20;64.30;15.30;101831.00;;;;4967942;28;20227;-39
2021/12/20 07:03:00;;;;;;;3.27;2.27;;;14.20;63.90;15.40;101844.00;;;;4967243;28;20248;-39
2021/12/20 07:05:26;;;;;;;4.33;2.20;;;14.20;64.10;15.40;101847.00;;;;4967784;28;20204;-40
2021/12/20 07:07:51;;;;;;;8.13;2.53;;;14.20;64.30;15.40;101845.00;;;;4966962;28;20181;-39
2021/12/20 07:10:17;;;;;;;4.80;2.67;;;14.20;64.00;15.30;101835.00;;;;4967945;28;20449;-39
2021/12/20 07:12:43;;;;;;;5.30;2.50;;;14.20;63.80;15.30;101849.00;;;;4967300;28;20181;-39
2021/12/20 07:15:13;;;;;;;5.27;2.50;;;14.20;64.10;15.30;101846.00;;;;4965947;28;20267;-39
2021/12/20 07:17:39;;;;;;;3.70;2.20;;;14.20;63.90;15.30;101860.00;;;;4966982;28;20161;-40
2021/12/20 07:20:06;;;;;;;4.73;2.40;;;14.20;64.10;15.30;101859.00;;;;4957737;28;20196;-39
2021/12/20 07:22:32;;;;;;;8.40;2.70;;;14.10;64.20;15.20;101862.00;;;;4968166;28;20656;-39
2021/12/20 07:24:57;;;;;;;4.57;2.27;;;14.10;64.10;15.20;101858.00;;;;4970338;28;20208;-39
2021/12/20 07:27:23;;;;;;;3.43;2.30;;;14.10;64.00;15.20;101857.00;;;;4969764;28;20185;-39
2021/12/20 07:29:49;;;;;;;5.10;2.50;;;14.10;64.10;15.20;101857.00;;;;4968100;28;20663;-39
2021/12/20 07:32:15;;;;;;;3.03;2.20;;;14.10;64.20;15.20;101853.00;;;;4970294;28;20388;-39
2021/12/20 07:34:40;;;;;;;5.37;2.63;;;14.10;64.10;15.20;101864.00;;;;4970017;28;20208;-39
2021/12/20 07:37:06;;;;;;;3.83;2.40;;;14.00;63.90;15.20;101861.00;;;;4952780;28;20563;-39
2021/12/20 07:39:33;;;;;;;6.27;2.40;;;14.00;64.90;15.20;101869.00;;;;4950086;28;20182;-39
2021/12/20 07:41:59;;;;;;;4.07;2.40;;;14.00;64.00;15.10;101869.00;;;;4950686;28;20177;-39
2021/12/20 07:44:25;;;;;;;3.33;2.20;;;14.00;64.00;15.10;101871.00;;;;4950206;28;20807;-39
2021/12/20 07:46:50;;;;;;;2.97;2.37;;;14.00;64.20;15.10;101881.00;;;;4954815;28;20268;-40
2021/12/20 07:49:16;;;;;;;2.63;2.20;;;14.00;64.10;15.10;101877.00;;;;4954536;28;20212;-39
2021/12/20 07:51:42;;;;;;;3.60;2.30;;;14.00;64.30;15.10;101883.00;;;;4950316;28;20173;-39
2021/12/20 07:54:08;;;;;;;4.33;2.40;;;14.00;64.00;15.10;101870.00;;;;4950293;28;20209;-39
2021/12/20 07:56:33;;;;;;;3.90;2.50;;;14.00;63.90;15.10;101877.00;;;;4950372;28;20216;-39
2021/12/20 07:58:59;;;;;;;3.30;2.40;;;14.00;64.00;15.10;101878.00;;;;4949821;28;20225;-39
2021/12/20 08:01:26;;;;;;;3.90;2.50;;;13.90;63.90;15.10;101873.00;;;;4950168;28;20338;-39
2021/12/20 08:03:52;;;;;;;4.13;2.40;;;13.90;63.70;15.10;101874.00;;;;4949844;28;20738;-39
2021/12/20 08:06:17;;;;;;;3.17;2.20;;;13.90;63.90;15.10;101878.00;;;;4950138;28;20181;-39
2021/12/20 08:08:44;;;;;;;4.07;2.40;;;13.90;63.80;15.10;101877.00;;;;4950205;28;20177;-39
2021/12/20 08:11:10;;;;;;;4.37;2.20;;;13.90;63.70;15.10;101876.00;;;;4949855;28;20653;-39
2021/12/20 08:13:44;;;;;;;6.93;2.67;;;13.90;63.60;15.10;101879.00;;;;4949899;28;20208;-39
2021/12/20 08:16:13;;;;;;;4.47;2.60;;;13.90;63.90;15.00;101887.00;;;;4949668;28;20519;-39
2021/12/20 08:18:42;;;;;;;5.07;2.50;;;13.90;63.70;15.00;101887.00;;;;4949679;28;20169;-39
2021/12/20 08:21:08;;;;;;;3.13;2.10;;;13.90;64.70;15.00;101881.00;;;;4949855;28;20178;-39
2021/12/20 08:23:34;;;;;;;4.03;2.20;;;13.90;63.90;15.00;101889.00;;;;4949327;28;20222;-39
2021/12/20 08:26:00;;;;;;;3.60;2.53;;;13.90;64.10;15.00;101886.00;;;;4949558;28;20201;-40
2021/12/20 08:28:27;;;;;;;3.73;2.53;;;13.80;64.10;15.00;101888.00;;;;4959494;28;20649;-39
2021/12/20 08:30:53;;;;;;;3.73;2.40;;;13.80;63.60;15.00;101897.00;;;;4968832;28;20192;-39
2021/12/20 08:33:18;;;;;;;2.80;2.23;;;13.80;64.00;15.00;101892.00;;;;4969067;28;20176;-40
2021/12/20 08:35:49;;;;;;;4.30;2.50;;;13.80;63.80;15.00;101900.00;;;;4968394;28;20539;-39
2021/12/20 08:38:16;;;;;;;3.73;2.50;;;13.80;63.60;15.00;101901.00;;;;4968632;28;20534;-39
2021/12/20 08:40:42;;;;;;;4.47;2.33;;;13.70;63.60;15.00;101885.00;;;;4968376;28;20164;-39
2021/12/20 08:43:07;;;;;;;3.37;2.50;;;13.70;63.70;14.90;101905.00;;;;4969005;28;20211;-39
2021/12/20 08:45:33;;;;;;;2.93;2.30;;;13.70;63.60;14.90;101899.00;;;;4968476;28;20197;-39
2021/12/20 08:47:59;;;;;;;5.03;2.40;;;13.80;63.70;14.90;101902.00;;;;4968797;28;20184;-39
2021/12/20 08:50:24;;;;;;;3.53;2.50;;;13.80;63.80;14.90;101901.00;;;;4968250;28;20188;-39
2021/12/20 08:52:50;;;;;;;3.90;2.40;;;13.70;63.70;14.90;101911.00;;;;4970166;28;20201;-39
2021/12/20 08:55:16;;;;;;;3.80;2.60;;;13.70;63.70;14.90;101910.00;;;;4972827;28;20697;-39
2021/12/20 08:57:42;;;;;;;3.40;2.50;;;13.70;63.70;14.90;101905.00;;;;4968709;28;20255;-39
2021/12/20 09:00:13;;;;;;;3.57;2.43;;;13.70;64.10;14.90;101913.00;;;;4967493;28;20707;-39
2021/12/20 09:02:38;;;;;;;3.50;2.20;;;13.70;63.70;14.90;101921.00;;;;4968781;28;20212;-39
2021/12/20 09:05:04;;;;;;;3.43;2.50;;;13.70;63.70;14.90;101913.00;;;;4970782;28;20264;-39
2021/12/20 09:07:30;;;;;;;3.37;2.17;;;13.60;63.60;14.90;101914.00;;;;4972372;28;20593;-39
2021/12/20 09:09:56;;;;;;;4.20;2.33;;;13.70;63.90;14.90;101922.00;;;;4972536;28;20232;-39
2021/12/20 09:12:22;;;;;;;3.23;2.20;;;13.60;63.70;14.90;101926.00;;;;4972739;28;20188;-39
2021/12/20 09:14:48;;;;;;;3.07;2.37;;;13.70;63.80;14.80;101919.00;;;;4973339;28;20209;-39
2021/12/20 09:17:14;;;;;;;2.93;2.47;;;13.70;64.00;14.80;101924.00;;;;4971984;28;20242;-39
2021/12/20 09:19:40;;;;;;;4.23;2.87;;;13.60;63.90;14.80;101923.00;;;;4972146;28;20246;-39
2021/12/20 09:22:06;;;;;;;3.90;2.57;;;13.60;63.80;14.80;101931.00;;;;4972897;28;20652;-39
2021/12/20 09:24:33;;;;;;;2.90;2.33;;;13.70;63.90;14.80;101940.00;;;;4971112;28;20256;-39
2021/12/20 09:26:59;;;;;;;2.90;2.27;;;13.60;63.90;14.80;101940.00;;;;4970348;28;20663;-40
2021/12/20 09:29:25;;;;;;;3.43;2.20;;;13.60;63.80;14.80;101944.00;;;;4971689;28;20166;-40
2021/12/20 09:31:50;;;;;;;3.20;2.30;;;13.70;64.10;14.80;101940.00;;;;4970775;28;20184;-39
2021/12/20 09:34:16;;;;;;;3.10;2.47;;;13.70;63.90;14.80;101939.00;;;;4972522;28;20197;-39
2021/12/20 09:36:42;;;;;;;4.07;2.47;;;13.90;63.90;14.90;101936.00;;;;4972132;28;20188;-39
2021/12/20 09:39:11;;;;;;;4.47;2.53;;;14.20;63.70;15.00;101940.00;;;;4971580;28;20169;-39
2021/12/20 09:44:07;;;;;;;2.50;2.30;;;14.60;63.10;15.20;101939.00;;;;4970873;28;20213;-39
2021/12/20 09:46:33;;;;;;;3.70;2.37;;;14.90;62.70;15.40;101939.00;;;;4970937;28;20227;-39
2021/12/20 09:48:59;;;;;;;3.13;2.13;;;15.20;62.20;15.50;101935.00;;;;4970322;28;20201;-39
2021/12/20 09:51:25;;;;;;;3.67;2.30;;;15.50;61.90;15.70;101942.00;;;;4971804;28;20173;-39
2021/12/20 09:53:51;;;;;;;3.57;2.30;;;15.60;61.70;15.80;101942.00;;;;4971404;28;20197;-39
2021/12/20 09:56:18;;;;;;;3.03;2.37;;;15.70;61.60;16.00;101949.00;;;;4970602;28;20199;-39
2021/12/20 09:58:44;;;;;;;2.60;2.10;;;15.80;61.50;16.10;101942.00;;;;4968855;28;20219;-39
2021/12/20 10:01:13;;;;;;;3.33;2.27;;;15.80;62.40;16.10;101937.00;;;;4938168;28;20177;-39
2021/12/20 10:03:39;;;;;;;4.67;2.50;;;15.90;61.60;16.20;101947.00;;;;4971887;28;20201;-39
2021/12/20 10:06:05;;;;;;;4.83;2.50;;;15.90;61.70;16.30;101939.00;;;;4971670;28;20165;-39
2021/12/20 10:08:33;;;;;;;3.97;2.50;;;15.90;61.80;16.30;101934.00;;;;4971765;28;20181;-39
2021/12/20 10:11:03;;;;;;;4.43;2.33;;;15.90;61.90;16.40;101943.00;;;;4971913;28;20184;-39
2021/12/20 10:13:36;;;;;;;3.33;2.30;;;15.90;62.00;16.40;101945.00;;;;4971179;28;20610;-39
2021/12/20 10:16:06;;;;;;;3.00;2.30;;;15.90;62.10;16.50;101944.00;;;;4971288;28;20572;-39
2021/12/20 10:18:33;;;;;;;3.13;2.30;;;15.90;62.30;16.50;101952.00;;;;4970543;28;20185;-39
2021/12/20 10:20:59;;;;;;;2.50;2.23;;;15.90;62.30;16.50;101956.00;;;;4971110;28;20651;-39
2021/12/20 10:23:48;;;;;;;3.07;2.37;;;16.00;62.40;16.50;101947.00;;;;4971990;28;20255;-39
2021/12/20 10:26:20;;;;;;;3.40;2.20;;;16.00;62.50;16.50;101947.00;;;;4971401;28;20604;-39
2021/12/20 10:28:52;;;;;;;3.60;2.43;;;15.90;62.40;16.50;101955.00;;;;4971532;28;20228;-39
2021/12/20 10:31:23;;;;;;;3.43;2.33;;;15.90;62.50;16.50;101947.00;;;;4971099;28;20164;-39
2021/12/20 10:34:01;;;;;;;3.00;2.30;;;15.90;62.70;16.50;101956.00;;;;4960362;28;20726;-39
2021/12/20 10:36:28;;;;;;;2.50;2.20;;;15.90;62.80;16.50;101956.00;;;;4960727;28;20201;-39
2021/12/20 10:38:58;;;;;;;3.67;2.30;;;15.90;62.80;16.60;101953.00;;;;4958811;28;20181;-39
2021/12/20 10:41:34;;;;;;;2.90;2.20;;;15.90;62.90;16.60;101945.00;;;;4964368;28;20727;-39
2021/12/20 10:44:03;;;;;;;3.23;2.30;;;15.80;63.00;16.60;101945.00;;;;4952432;28;20595;-39
2021/12/20 10:46:32;;;;;;;2.60;2.03;;;15.80;63.10;16.50;101943.00;;;;4970435;28;20185;-39
2021/12/20 10:49:06;;;;;;;3.23;2.33;;;15.80;63.20;16.50;101941.00;;;;4960817;28;20660;-39
2021/12/20 10:51:40;;;;;;;4.23;2.50;;;15.80;63.40;16.50;101947.00;;;;4959840;28;20208;-39
2021/12/20 10:54:13;;;;;;;2.83;2.20;;;15.80;63.50;16.50;101942.00;;;;4961485;28;20691;-38
2021/12/20 10:56:48;;;;;;;3.67;2.37;;;15.80;63.70;16.50;101934.00;;;;4953612;28;20189;-39
2021/12/20 10:59:13;;;;;;;2.80;2.20;;;15.80;63.70;16.50;101941.00;;;;4955669;28;20323;-39
2021/12/20 11:02:19;;;;;;;3.67;2.43;;;15.70;63.70;16.50;101930.00;;;;4954703;28;20263;-39
2021/12/20 11:04:37;;;;;;;3.60;2.30;;;15.70;63.80;16.50;101932.00;;;;4951791;29;20441;-39
2021/12/20 11:09:40;;;;;;;4.07;2.30;;;15.80;63.80;16.50;101935.00;;;;4959082;28;20173;-40
2021/12/20 11:12:12;;;;;;;2.60;2.40;;;15.80;63.90;16.50;101938.00;;;;4970543;28;20624;-39